Hlavní strana
METAR-TAF:

METAR-TAF

Letiště :

Hasvik, Norsko

zeměpisná šířka: 70-29N, zeměpisná délka: 022-09E, výška: 10 m

Aktuální stav počasí

Zpráva byla vytvořena před 2 hodinami a 51 minutami, v 21:20 UTC
Západoseverozápadní vítr 32 kt s nárazy do 45 kt
Teplota 1°C
Vlhkost vzduchu 69%
Tlak 1003 hPa
Viditelnost: 2000 m
Skoro jasno ve výšce 1500 ft, Cumulonimbus.
Polojasno ve výšce 1500 ft
Oblačno až skoro zataženo ve výšce 3000 ft
sněhové přeháňky, malé kroupy nebo krupky, zvířený sníh

METAR: ENHK 212120Z 30032G45KT 2000 SHSNGS BLSN FEW015CB SCT015 BKN030 01/M04 Q1003

Čas: 01:11 (00:11 UTC)


TAF: chybějící

Stav a předpovědi počasí z více než 4 000 letišť (zprávy METAR a TAF).

Červené a žluté tečky na mapě představují dostupné meteorologické stanice.

Když kurzor umístíte na tečku, zobrazí se název stanice.

Pak kliknutím zobrazíte stav a předpověď počasí.

Chcete-li změnit mapu, kliknutím na zelené tlačítko se znaménkem +mapu přiblížíte, kliknutím na zelené tlačítko se znaménkem – mapu oddálíte a kliknutím na zelené šipky přejdete na sousední mapy.


METAR-TAF: